XBRDN MMMY-MMMY
Flight info
| Callsign | XBRDN |
|---|---|
| Flight time | 0h 51m |
| Altitude | 12000 |
| Route | IFR PRACTICE MMMY LCL |
| Aircraft | BE58/L-SDE2E3FGHIJ1RWXY/C |
Departure
| Time | 2026-04-26 15:22 |
|---|---|
| Airport | Monterrey International Airport (MMMY) |
Arrival
| Time | 2026-04-26 16:13 |
|---|---|
| Airport | Monterrey International Airport (MMMY) |
| Time | Latitude | Longitude | Altitude | Speed | Heading |
|---|---|---|---|---|---|
| 2026-04-26 14:59 | 25.77295 | -100.11258 | 1325 ft | 0 kts | 345° |
| 2026-04-26 15:10 | 25.77301 | -100.11250 | 1325 ft | 4 kts | 99° |
| 2026-04-26 15:10 | 25.77285 | -100.11195 | 1325 ft | 12 kts | 76° |
| 2026-04-26 15:11 | 25.77311 | -100.11073 | 1325 ft | 20 kts | 76° |
| 2026-04-26 15:11 | 25.77351 | -100.10927 | 1325 ft | 16 kts | 39° |
| 2026-04-26 15:11 | 25.77477 | -100.10947 | 1325 ft | 22 kts | 342° |
| 2026-04-26 15:11 | 25.77625 | -100.10995 | 1325 ft | 19 kts | 331° |
| 2026-04-26 15:12 | 25.77646 | -100.11023 | 1325 ft | 0 kts | 300° |
| 2026-04-26 15:12 | 25.77647 | -100.11024 | 1325 ft | 1 kts | 300° |
| 2026-04-26 15:13 | 25.77669 | -100.11067 | 1325 ft | 12 kts | 301° |
| 2026-04-26 15:13 | 25.77735 | -100.11159 | 1325 ft | 17 kts | 1° |
| 2026-04-26 15:13 | 25.77852 | -100.11114 | 1325 ft | 13 kts | 345° |
| 2026-04-26 15:13 | 25.77908 | -100.11200 | 1325 ft | 18 kts | 294° |
| 2026-04-26 15:14 | 25.77986 | -100.11341 | 1325 ft | 25 kts | 301° |
| 2026-04-26 15:14 | 25.78085 | -100.11524 | 1325 ft | 28 kts | 301° |
| 2026-04-26 15:14 | 25.78175 | -100.11686 | 1325 ft | 14 kts | 299° |
| 2026-04-26 15:14 | 25.78231 | -100.11787 | 1325 ft | 13 kts | 307° |
| 2026-04-26 15:15 | 25.78273 | -100.11802 | 1325 ft | 5 kts | 28° |
| 2026-04-26 15:15 | 25.78308 | -100.11778 | 1325 ft | 7 kts | 31° |
| 2026-04-26 15:15 | 25.78321 | -100.11769 | 1325 ft | 0 kts | 30° |
| 2026-04-26 15:20 | 25.78335 | -100.11761 | 1325 ft | 8 kts | 30° |
| 2026-04-26 15:20 | 25.78403 | -100.11697 | 1325 ft | 14 kts | 73° |
| 2026-04-26 15:20 | 25.78375 | -100.11646 | 1325 ft | 0 kts | 122° |
| 2026-04-26 15:21 | 25.78324 | -100.11555 | 1325 ft | 33 kts | 121° |
| 2026-04-26 15:21 | 25.78118 | -100.11181 | 1325 ft | 83 kts | 120° |
| 2026-04-26 15:21 | 25.77721 | -100.10463 | 1406 ft | 124 kts | 122° |
| 2026-04-26 15:21 | 25.77242 | -100.09616 | 1688 ft | 133 kts | 121° |
| 2026-04-26 15:22 | 25.76786 | -100.08658 | 1851 ft | 145 kts | 116° |
| 2026-04-26 15:22 | 25.76317 | -100.07666 | 2096 ft | 149 kts | 119° |
| 2026-04-26 15:22 | 25.75778 | -100.06641 | 2215 ft | 155 kts | 119° |
| 2026-04-26 15:22 | 25.75247 | -100.05622 | 2464 ft | 152 kts | 121° |
| 2026-04-26 15:23 | 25.74690 | -100.04625 | 2655 ft | 152 kts | 122° |
| 2026-04-26 15:23 | 25.74126 | -100.03636 | 2884 ft | 149 kts | 122° |
| 2026-04-26 15:23 | 25.73578 | -100.02682 | 3173 ft | 145 kts | 123° |
| 2026-04-26 15:23 | 25.73051 | -100.01758 | 3494 ft | 139 kts | 122° |
| 2026-04-26 15:24 | 25.72527 | -100.00801 | 3586 ft | 149 kts | 122° |
| 2026-04-26 15:24 | 25.72026 | -99.99819 | 3839 ft | 144 kts | 120° |
| 2026-04-26 15:24 | 25.71548 | -99.98833 | 4037 ft | 146 kts | 119° |
| 2026-04-26 15:24 | 25.71070 | -99.97879 | 4285 ft | 143 kts | 121° |
| 2026-04-26 15:25 | 25.71026 | -99.97793 | 4303 ft | 143 kts | 121° |
| 2026-04-26 15:26 | 25.70714 | -99.97196 | 4431 ft | 143 kts | 121° |
| 2026-04-26 15:26 | 25.70224 | -99.96243 | 4657 ft | 142 kts | 121° |
| 2026-04-26 15:26 | 25.69737 | -99.95291 | 4856 ft | 141 kts | 121° |
| 2026-04-26 15:27 | 25.69293 | -99.94318 | 5009 ft | 143 kts | 113° |
| 2026-04-26 15:27 | 25.69021 | -99.93230 | 5079 ft | 150 kts | 100° |
| 2026-04-26 15:27 | 25.68999 | -99.92056 | 5101 ft | 154 kts | 83° |
| 2026-04-26 15:27 | 25.69414 | -99.90956 | 5078 ft | 160 kts | 52° |
| 2026-04-26 15:28 | 25.70324 | -99.90263 | 5083 ft | 161 kts | 20° |
| 2026-04-26 15:28 | 25.71394 | -99.89995 | 5179 ft | 155 kts | 4° |
| 2026-04-26 15:28 | 25.72477 | -99.90011 | 5204 ft | 157 kts | 357° |
| 2026-04-26 15:28 | 25.73580 | -99.90047 | 5188 ft | 161 kts | 358° |
| 2026-04-26 15:29 | 25.74709 | -99.90081 | 5158 ft | 163 kts | 358° |
| 2026-04-26 15:29 | 25.75830 | -99.90138 | 5183 ft | 159 kts | 356° |
| 2026-04-26 15:29 | 25.78046 | -99.90195 | 5090 ft | 162 kts | 358° |
| 2026-04-26 15:30 | 25.80278 | -99.90442 | 5019 ft | 161 kts | 350° |
| 2026-04-26 15:30 | 25.81378 | -99.90643 | 4990 ft | 160 kts | 349° |
| 2026-04-26 15:30 | 25.82460 | -99.90886 | 4984 ft | 159 kts | 345° |
| 2026-04-26 15:31 | 25.83502 | -99.91257 | 5006 ft | 156 kts | 338° |
| 2026-04-26 15:31 | 25.85507 | -99.92145 | 4986 ft | 157 kts | 330° |
| 2026-04-26 15:31 | 25.86443 | -99.92745 | 5012 ft | 155 kts | 329° |
| 2026-04-26 15:32 | 25.88035 | -99.93727 | 5002 ft | 156 kts | 329° |
| 2026-04-26 15:32 | 25.89263 | -99.94550 | 4986 ft | 156 kts | 325° |
| 2026-04-26 15:32 | 25.90130 | -99.95273 | 4973 ft | 155 kts | 314° |
| 2026-04-26 15:33 | 25.90802 | -99.96208 | 4957 ft | 155 kts | 305° |
| 2026-04-26 15:33 | 25.91429 | -99.97173 | 4972 ft | 153 kts | 303° |
| 2026-04-26 15:33 | 25.92034 | -99.98143 | 4977 ft | 153 kts | 302° |
| 2026-04-26 15:33 | 25.92590 | -99.99150 | 4960 ft | 153 kts | 305° |
| 2026-04-26 15:34 | 25.93439 | -99.99842 | 4950 ft | 155 kts | 341° |
| 2026-04-26 15:34 | 25.94485 | -99.99799 | 4986 ft | 153 kts | 25° |
| 2026-04-26 15:34 | 25.95329 | -99.99128 | 5087 ft | 148 kts | 39° |
| 2026-04-26 15:34 | 25.96151 | -99.98401 | 5068 ft | 153 kts | 38° |
| 2026-04-26 15:35 | 25.97001 | -99.97674 | 5073 ft | 154 kts | 37° |
| 2026-04-26 15:35 | 25.97880 | -99.96998 | 5097 ft | 153 kts | 32° |
| 2026-04-26 15:35 | 25.98799 | -99.96390 | 5098 ft | 155 kts | 32° |
| 2026-04-26 15:35 | 25.99698 | -99.95720 | 5088 ft | 156 kts | 35° |
| 2026-04-26 15:36 | 26.00607 | -99.95030 | 5026 ft | 160 kts | 34° |
| 2026-04-26 15:36 | 26.01518 | -99.94332 | 5020 ft | 156 kts | 35° |
| 2026-04-26 15:36 | 26.02442 | -99.93666 | 4974 ft | 159 kts | 33° |
| 2026-04-26 15:36 | 26.03356 | -99.92979 | 4983 ft | 157 kts | 36° |
| 2026-04-26 15:37 | 26.04230 | -99.92280 | 5095 ft | 152 kts | 37° |
| 2026-04-26 15:37 | 26.05111 | -99.91627 | 5118 ft | 153 kts | 31° |
| 2026-04-26 15:37 | 26.06028 | -99.91056 | 5174 ft | 153 kts | 29° |
| 2026-04-26 15:37 | 26.06946 | -99.90473 | 5230 ft | 150 kts | 28° |
| 2026-04-26 15:38 | 26.07853 | -99.89886 | 5316 ft | 151 kts | 30° |
| 2026-04-26 15:38 | 26.08766 | -99.89307 | 5378 ft | 151 kts | 30° |
| 2026-04-26 15:38 | 26.09681 | -99.88733 | 5446 ft | 150 kts | 30° |
| 2026-04-26 15:38 | 26.10588 | -99.88161 | 5517 ft | 150 kts | 30° |
| 2026-04-26 15:39 | 26.11485 | -99.87580 | 5579 ft | 148 kts | 36° |
| 2026-04-26 15:39 | 26.11998 | -99.86631 | 5652 ft | 145 kts | 76° |
| 2026-04-26 15:39 | 26.12281 | -99.85550 | 5720 ft | 146 kts | 75° |
| 2026-04-26 15:39 | 26.12481 | -99.84838 | 5768 ft | 146 kts | 75° |
| 2026-04-26 15:40 | 26.12880 | -99.83385 | 5869 ft | 147 kts | 75° |
| 2026-04-26 15:40 | 26.13178 | -99.82297 | 5945 ft | 147 kts | 75° |
| 2026-04-26 15:40 | 26.13695 | -99.81333 | 6009 ft | 150 kts | 36° |
| 2026-04-26 15:40 | 26.14690 | -99.81180 | 6067 ft | 150 kts | 339° |
| 2026-04-26 15:41 | 26.15350 | -99.81988 | 6139 ft | 144 kts | 280° |
| 2026-04-26 15:41 | 26.15247 | -99.83066 | 6218 ft | 140 kts | 254° |
| 2026-04-26 15:41 | 26.15034 | -99.84129 | 6293 ft | 140 kts | 255° |
| 2026-04-26 15:41 | 26.14805 | -99.85180 | 6360 ft | 140 kts | 246° |
| 2026-04-26 15:42 | 26.14198 | -99.85956 | 6429 ft | 135 kts | 212° |
| 2026-04-26 15:42 | 26.13381 | -99.86493 | 6499 ft | 135 kts | 209° |
| 2026-04-26 15:42 | 26.12577 | -99.87011 | 6570 ft | 136 kts | 209° |
| 2026-04-26 15:42 | 26.11756 | -99.87535 | 6640 ft | 136 kts | 209° |
| 2026-04-26 15:43 | 26.10932 | -99.88055 | 6710 ft | 136 kts | 208° |
| 2026-04-26 15:43 | 26.10111 | -99.88574 | 6778 ft | 136 kts | 209° |
| 2026-04-26 15:43 | 26.08468 | -99.89614 | 6909 ft | 136 kts | 209° |
| 2026-04-26 15:44 | 26.07647 | -99.90128 | 6981 ft | 136 kts | 209° |
| 2026-04-26 15:44 | 26.06001 | -99.91147 | 7126 ft | 135 kts | 209° |
| 2026-04-26 15:44 | 26.05182 | -99.91658 | 7196 ft | 135 kts | 209° |
| 2026-04-26 15:45 | 26.03537 | -99.92677 | 7340 ft | 136 kts | 209° |
| 2026-04-26 15:45 | 26.02709 | -99.93187 | 7412 ft | 136 kts | 209° |
| 2026-04-26 15:46 | 26.01056 | -99.94199 | 7553 ft | 135 kts | 209° |
| 2026-04-26 15:46 | 26.00235 | -99.94702 | 7625 ft | 135 kts | 210° |
| 2026-04-26 15:46 | 25.99555 | -99.95146 | 7686 ft | 135 kts | 211° |
| 2026-04-26 15:48 | 25.98987 | -99.95520 | 7733 ft | 136 kts | 211° |
| 2026-04-26 15:48 | 25.98151 | -99.96069 | 7690 ft | 143 kts | 212° |
| 2026-04-26 15:48 | 25.97587 | -99.96465 | 7654 ft | 146 kts | 213° |
| 2026-04-26 15:49 | 25.96726 | -99.97079 | 7594 ft | 146 kts | 213° |
| 2026-04-26 15:49 | 25.95872 | -99.97689 | 7528 ft | 146 kts | 213° |
| 2026-04-26 15:49 | 25.95021 | -99.98296 | 7462 ft | 145 kts | 213° |
| 2026-04-26 15:49 | 25.94169 | -99.98904 | 7395 ft | 145 kts | 213° |
| 2026-04-26 15:50 | 25.93044 | -99.99707 | 7304 ft | 145 kts | 213° |
| 2026-04-26 15:50 | 25.92471 | -100.00116 | 7260 ft | 145 kts | 213° |
| 2026-04-26 15:50 | 25.91623 | -100.00724 | 7192 ft | 145 kts | 213° |
| 2026-04-26 15:50 | 25.90771 | -100.01333 | 7127 ft | 146 kts | 213° |
| 2026-04-26 15:51 | 25.89917 | -100.01945 | 7058 ft | 146 kts | 213° |
| 2026-04-26 15:51 | 25.89062 | -100.02553 | 6993 ft | 146 kts | 213° |
| 2026-04-26 15:51 | 25.88217 | -100.03153 | 6929 ft | 146 kts | 213° |
| 2026-04-26 15:51 | 25.87362 | -100.03762 | 6863 ft | 146 kts | 213° |
| 2026-04-26 15:52 | 25.86507 | -100.04370 | 6804 ft | 146 kts | 213° |
| 2026-04-26 15:52 | 25.85671 | -100.04965 | 6864 ft | 137 kts | 213° |
| 2026-04-26 15:52 | 25.84852 | -100.05542 | 6782 ft | 144 kts | 213° |
| 2026-04-26 15:52 | 25.84256 | -100.05932 | 6679 ft | 149 kts | 210° |
| 2026-04-26 15:53 | 25.83029 | -100.06672 | 6477 ft | 153 kts | 209° |
| 2026-04-26 15:53 | 25.82087 | -100.07242 | 6326 ft | 155 kts | 209° |
| 2026-04-26 15:53 | 25.81138 | -100.07818 | 6167 ft | 156 kts | 210° |
| 2026-04-26 15:53 | 25.80198 | -100.08420 | 6005 ft | 155 kts | 211° |
| 2026-04-26 15:54 | 25.79275 | -100.09030 | 5834 ft | 154 kts | 212° |
| 2026-04-26 15:54 | 25.78364 | -100.09649 | 5667 ft | 153 kts | 212° |
| 2026-04-26 15:54 | 25.77461 | -100.10281 | 5498 ft | 153 kts | 214° |
| 2026-04-26 15:54 | 25.76450 | -100.10566 | 5324 ft | 156 kts | 170° |
| 2026-04-26 15:55 | 25.75520 | -100.09966 | 5161 ft | 157 kts | 141° |
| 2026-04-26 15:55 | 25.74679 | -100.09213 | 5076 ft | 152 kts | 142° |
| 2026-04-26 15:55 | 25.73872 | -100.08497 | 5067 ft | 146 kts | 142° |
| 2026-04-26 15:55 | 25.73846 | -100.08473 | 5068 ft | 146 kts | 142° |
| 2026-04-26 15:59 | 25.73413 | -100.08085 | 5064 ft | 144 kts | 142° |
| 2026-04-26 15:59 | 25.72650 | -100.07378 | 5058 ft | 143 kts | 133° |
| 2026-04-26 16:00 | 25.72409 | -100.06358 | 5063 ft | 142 kts | 75° |
| 2026-04-26 16:00 | 25.73052 | -100.05610 | 5055 ft | 138 kts | 14° |
| 2026-04-26 16:00 | 25.73936 | -100.05834 | 5065 ft | 134 kts | 317° |
| 2026-04-26 16:00 | 25.74584 | -100.06579 | 5072 ft | 135 kts | 313° |
| 2026-04-26 16:01 | 25.75254 | -100.07308 | 5076 ft | 136 kts | 314° |
| 2026-04-26 16:01 | 25.75894 | -100.08074 | 5076 ft | 135 kts | 308° |
| 2026-04-26 16:01 | 25.76445 | -100.08923 | 5078 ft | 136 kts | 303° |
| 2026-04-26 16:01 | 25.76964 | -100.09800 | 5073 ft | 136 kts | 302° |
| 2026-04-26 16:02 | 25.77483 | -100.10676 | 5077 ft | 136 kts | 304° |
| 2026-04-26 16:02 | 25.78209 | -100.11331 | 5102 ft | 133 kts | 331° |
| 2026-04-26 16:02 | 25.78997 | -100.11861 | 5120 ft | 134 kts | 326° |
| 2026-04-26 16:02 | 25.79526 | -100.12224 | 5118 ft | 135 kts | 327° |
| 2026-04-26 16:03 | 25.80520 | -100.13067 | 5127 ft | 135 kts | 321° |
| 2026-04-26 16:03 | 25.81271 | -100.13655 | 5127 ft | 133 kts | 324° |
| 2026-04-26 16:03 | 25.82009 | -100.14275 | 5072 ft | 133 kts | 317° |
| 2026-04-26 16:03 | 25.82699 | -100.14952 | 5016 ft | 134 kts | 322° |
| 2026-04-26 16:04 | 25.83480 | -100.15524 | 4993 ft | 131 kts | 326° |
| 2026-04-26 16:04 | 25.84213 | -100.16134 | 4930 ft | 134 kts | 320° |
| 2026-04-26 16:04 | 25.84968 | -100.16766 | 4795 ft | 139 kts | 323° |
| 2026-04-26 16:04 | 25.85758 | -100.17399 | 4678 ft | 141 kts | 322° |
| 2026-04-26 16:05 | 25.86561 | -100.18045 | 4525 ft | 144 kts | 324° |
| 2026-04-26 16:05 | 25.87401 | -100.18676 | 4361 ft | 146 kts | 323° |
| 2026-04-26 16:05 | 25.88183 | -100.19361 | 4287 ft | 143 kts | 318° |
| 2026-04-26 16:05 | 25.88973 | -100.20056 | 4128 ft | 146 kts | 323° |
| 2026-04-26 16:06 | 25.89770 | -100.20722 | 4101 ft | 140 kts | 317° |
| 2026-04-26 16:06 | 25.90356 | -100.21539 | 4057 ft | 133 kts | 298° |
| 2026-04-26 16:06 | 25.90613 | -100.22517 | 3983 ft | 131 kts | 273° |
| 2026-04-26 16:06 | 25.90466 | -100.23502 | 3930 ft | 124 kts | 248° |
| 2026-04-26 16:07 | 25.89988 | -100.24253 | 4045 ft | 122 kts | 224° |
| 2026-04-26 16:07 | 25.89273 | -100.24801 | 4046 ft | 124 kts | 207° |
| 2026-04-26 16:07 | 25.88467 | -100.25098 | 4081 ft | 122 kts | 192° |
| 2026-04-26 16:07 | 25.87614 | -100.25131 | 4087 ft | 122 kts | 175° |
| 2026-04-26 16:08 | 25.86782 | -100.24914 | 4079 ft | 124 kts | 162° |
| 2026-04-26 16:08 | 25.86244 | -100.24670 | 4083 ft | 124 kts | 156° |
| 2026-04-26 16:08 | 25.85268 | -100.24012 | 4087 ft | 126 kts | 143° |
| 2026-04-26 16:08 | 25.84637 | -100.23302 | 3948 ft | 133 kts | 121° |
| 2026-04-26 16:09 | 25.84208 | -100.22405 | 3822 ft | 130 kts | 120° |
| 2026-04-26 16:09 | 25.83759 | -100.21539 | 3674 ft | 130 kts | 122° |
| 2026-04-26 16:09 | 25.83274 | -100.20695 | 3501 ft | 129 kts | 119° |
| 2026-04-26 16:09 | 25.82849 | -100.19827 | 3328 ft | 128 kts | 119° |
| 2026-04-26 16:10 | 25.82371 | -100.18987 | 3127 ft | 128 kts | 122° |
| 2026-04-26 16:10 | 25.81875 | -100.18171 | 2949 ft | 127 kts | 125° |
| 2026-04-26 16:10 | 25.81359 | -100.17372 | 2778 ft | 127 kts | 125° |
| 2026-04-26 16:10 | 25.80871 | -100.16562 | 2628 ft | 126 kts | 122° |
| 2026-04-26 16:11 | 25.80425 | -100.15751 | 2458 ft | 121 kts | 120° |
| 2026-04-26 16:11 | 25.79978 | -100.14982 | 2286 ft | 119 kts | 122° |
| 2026-04-26 16:11 | 25.79514 | -100.14227 | 2091 ft | 122 kts | 124° |
| 2026-04-26 16:11 | 25.79031 | -100.13439 | 1936 ft | 124 kts | 122° |
| 2026-04-26 16:12 | 25.78690 | -100.12574 | 1795 ft | 123 kts | 105° |
| 2026-04-26 16:12 | 25.78392 | -100.11706 | 1507 ft | 117 kts | 118° |
| 2026-04-26 16:12 | 25.77661 | -100.10344 | 1325 ft | 75 kts | 121° |
| 2026-04-26 16:13 | 25.77441 | -100.09943 | 1325 ft | 50 kts | 121° |
| 2026-04-26 16:13 | 25.77284 | -100.09679 | 1325 ft | 29 kts | 154° |
| 2026-04-26 16:13 | 25.77195 | -100.09735 | 1325 ft | 0 kts | 213° |
| 2026-04-26 16:15 | 25.77170 | -100.09753 | 1325 ft | 11 kts | 214° |
| 2026-04-26 16:15 | 25.77171 | -100.09854 | 1325 ft | 22 kts | 301° |
| 2026-04-26 16:16 | 25.77400 | -100.10276 | 1325 ft | 40 kts | 301° |
| 2026-04-26 16:16 | 25.77554 | -100.10556 | 1325 ft | 42 kts | 302° |
| 2026-04-26 16:16 | 25.77688 | -100.10799 | 1325 ft | 33 kts | 301° |
| 2026-04-26 16:16 | 25.77805 | -100.11011 | 1325 ft | 30 kts | 302° |
| 2026-04-26 16:17 | 25.77838 | -100.11132 | 1325 ft | 15 kts | 202° |
| 2026-04-26 16:17 | 25.77731 | -100.11158 | 1325 ft | 17 kts | 159° |
| 2026-04-26 16:17 | 25.77665 | -100.11053 | 1325 ft | 18 kts | 121° |
| 2026-04-26 16:17 | 25.77569 | -100.10974 | 1325 ft | 19 kts | 167° |
| 2026-04-26 16:18 | 25.77440 | -100.10939 | 1325 ft | 20 kts | 163° |
| 2026-04-26 16:18 | 25.77400 | -100.10927 | 1325 ft | 0 kts | 168° |
| 2026-04-26 16:25 | 25.77397 | -100.10927 | 1325 ft | 5 kts | 168° |
| 2026-04-26 16:25 | 25.77347 | -100.10874 | 1325 ft | 10 kts | 97° |
| 2026-04-26 16:25 | 25.77340 | -100.10827 | 1325 ft | 3 kts | 77° |
| 2026-04-26 16:25 | 25.77334 | -100.10819 | 1325 ft | 3 kts | 199° |
| 2026-04-26 16:26 | 25.77334 | -100.10831 | 1325 ft | 0 kts | 341° |
| 2026-04-26 16:26 | 25.77341 | -100.10834 | 1325 ft | 4 kts | 346° |
| 2026-04-26 16:26 | 25.77343 | -100.10834 | 1325 ft | 0 kts | 346° |